createdAt,value
2019-05-22T00:00:05.899Z,77.20
2019-05-22T00:01:10.215Z,77.00
2019-05-22T00:02:07.885Z,77.00
2019-05-22T00:03:05.821Z,76.90
2019-05-22T00:04:05.887Z,76.90
2019-05-22T00:05:05.250Z,76.80
2019-05-22T00:06:07.849Z,76.90
2019-05-22T00:07:05.800Z,76.90
2019-05-22T00:08:13.443Z,76.90
2019-05-22T00:09:10.588Z,76.90
2019-05-22T00:10:05.736Z,76.90
2019-05-22T00:11:08.385Z,76.80
2019-05-22T00:12:05.322Z,76.80
2019-05-22T00:13:05.357Z,76.80
2019-05-22T00:14:05.583Z,76.80
2019-05-22T00:15:05.810Z,76.70
2019-05-22T00:16:05.875Z,76.70
2019-05-22T00:17:05.398Z,76.70
2019-05-22T00:18:10.546Z,76.60
2019-05-22T00:19:08.052Z,76.50
2019-05-22T00:20:04.953Z,76.50
2019-05-22T00:21:07.515Z,76.50
2019-05-22T00:22:08.114Z,76.50
2019-05-22T00:23:08.503Z,76.60
2019-05-22T00:24:05.531Z,76.60
2019-05-22T00:25:05.651Z,76.50
2019-05-22T00:26:05.864Z,76.60
2019-05-22T00:27:05.422Z,76.60
2019-05-22T00:28:05.582Z,76.60
2019-05-22T00:29:10.807Z,76.60
2019-05-22T00:30:05.786Z,76.60
2019-05-22T00:31:05.901Z,76.60
2019-05-22T00:32:10.183Z,76.70
2019-05-22T00:33:07.821Z,76.70
2019-05-22T00:34:08.421Z,76.70
2019-05-22T00:35:05.412Z,76.70
2019-05-22T00:36:05.617Z,76.80
2019-05-22T00:37:08.278Z,76.90
2019-05-22T00:38:05.220Z,76.90
2019-05-22T00:39:07.903Z,76.90
2019-05-22T00:40:06.010Z,76.90
2019-05-22T00:41:05.115Z,76.90
2019-05-22T00:42:07.654Z,76.90
2019-05-22T00:43:14.489Z,76.80
2019-05-22T00:44:08.267Z,76.90
2019-05-22T00:45:07.729Z,76.90
2019-05-22T00:46:05.819Z,77.00
2019-05-22T00:47:05.967Z,77.00
2019-05-22T00:48:05.161Z,77.10
2019-05-22T00:49:05.341Z,77.10
2019-05-22T00:50:08.035Z,77.10
2019-05-22T00:51:07.616Z,77.10
2019-05-22T00:52:05.564Z,77.20
2019-05-22T00:53:05.560Z,77.20
2019-05-22T00:54:08.230Z,77.40
2019-05-22T00:55:05.199Z,77.40
2019-05-22T00:56:05.242Z,77.30
2019-05-22T00:57:05.417Z,77.30
2019-05-22T00:58:05.548Z,77.40
2019-05-22T00:59:05.742Z,77.30
2019-05-22T01:00:05.824Z,77.30
2019-05-22T01:01:05.889Z,77.40
2019-05-22T01:02:08.460Z,77.40
2019-05-22T01:03:08.046Z,77.30
2019-05-22T01:04:10.062Z,77.30
2019-05-22T01:05:10.100Z,77.40
2019-05-22T01:06:05.011Z,77.40
2019-05-22T01:07:07.873Z,77.40
2019-05-22T01:08:05.819Z,77.40
2019-05-22T01:09:08.441Z,77.60
2019-05-22T01:10:06.511Z,77.60
2019-05-22T01:11:08.330Z,77.60
2019-05-22T01:12:07.832Z,77.60
2019-05-22T01:13:05.789Z,77.60
2019-05-22T01:14:08.410Z,77.60
2019-05-22T01:15:05.378Z,77.70
2019-05-22T01:16:05.354Z,77.80
2019-05-22T01:17:05.407Z,77.80
2019-05-22T01:18:13.169Z,77.90
2019-05-22T01:19:05.225Z,78.00
2019-05-22T01:20:05.360Z,77.90
2019-05-22T01:21:05.436Z,78.00
2019-05-22T01:22:07.997Z,78.10
2019-05-22T01:23:07.487Z,78.10
2019-05-22T01:24:10.586Z,78.10
2019-05-22T01:25:05.577Z,78.10
2019-05-22T01:26:05.647Z,78.00
2019-05-22T01:27:05.934Z,78.00
2019-05-22T01:28:07.637Z,78.30
2019-05-22T01:29:05.554Z,78.10
2019-05-22T01:30:05.708Z,78.00
2019-05-22T01:31:05.777Z,78.10
2019-05-22T01:32:05.869Z,78.20
2019-05-22T01:33:10.165Z,78.30
2019-05-22T01:34:07.602Z,78.40
2019-05-22T01:35:05.521Z,78.40
2019-05-22T01:36:05.535Z,78.40
2019-05-22T01:37:05.617Z,78.40
2019-05-22T01:38:08.203Z,78.60
2019-05-22T01:39:05.095Z,78.60
2019-05-22T01:40:07.923Z,78.80
2019-05-22T01:41:05.935Z,78.90
2019-05-22T01:42:04.983Z,78.90
2019-05-22T01:43:05.262Z,79.00
2019-05-22T01:44:07.800Z,79.10
2019-05-22T01:45:07.310Z,79.10
2019-05-22T01:46:05.321Z,79.00
2019-05-22T01:47:05.384Z,79.10
2019-05-22T01:48:06.033Z,79.10
2019-05-22T01:49:05.892Z,79.10
2019-05-22T01:50:05.307Z,79.10
2019-05-22T01:51:07.852Z,79.30
2019-05-22T01:52:08.241Z,79.20
2019-05-22T01:53:05.178Z,79.30
2019-05-22T01:54:05.285Z,79.30
2019-05-22T01:55:05.427Z,79.40
2019-05-22T01:56:05.576Z,79.40
2019-05-22T01:57:08.143Z,79.60
2019-05-22T01:58:05.027Z,79.60
2019-05-22T01:59:05.112Z,79.60
2019-05-22T02:00:05.158Z,79.60
2019-05-22T02:01:05.289Z,79.70
2019-05-22T02:02:05.339Z,79.80
2019-05-22T02:03:05.405Z,79.80
2019-05-22T02:04:07.966Z,80.00
2019-05-22T02:05:05.866Z,80.00
2019-05-22T02:06:05.007Z,80.00
2019-05-22T02:07:07.679Z,80.00
2019-05-22T02:08:05.742Z,80.00
2019-05-22T02:09:05.778Z,80.10
2019-05-22T02:10:08.432Z,80.10
2019-05-22T02:11:05.313Z,80.10
2019-05-22T02:12:08.026Z,80.50
2019-05-22T02:13:07.575Z,80.50
2019-05-22T02:14:08.144Z,80.40
2019-05-22T02:15:05.089Z,80.40
2019-05-22T02:16:07.653Z,80.50
2019-05-22T02:17:05.631Z,80.50
2019-05-22T02:18:08.359Z,80.50
2019-05-22T02:19:05.386Z,80.50
2019-05-22T02:20:05.785Z,80.60
2019-05-22T02:21:05.964Z,80.50
2019-05-22T02:22:07.493Z,80.50
2019-05-22T02:23:05.468Z,80.50
2019-05-22T02:24:08.076Z,80.80
2019-05-22T02:25:09.995Z,80.60
2019-05-22T02:26:08.490Z,80.60
2019-05-22T02:27:05.434Z,80.70
2019-05-22T02:28:05.547Z,80.70
2019-05-22T02:29:08.229Z,80.60
2019-05-22T02:30:07.674Z,80.80
2019-05-22T02:31:05.639Z,80.90
2019-05-22T02:32:05.886Z,80.80
2019-05-22T02:33:05.013Z,80.70
2019-05-22T02:34:05.066Z,80.80
2019-05-22T02:35:05.292Z,81.00
2019-05-22T02:36:05.650Z,81.00
2019-05-22T02:37:05.862Z,81.00
2019-05-22T02:38:05.020Z,80.90
2019-05-22T02:39:05.174Z,81.00
2019-05-22T02:40:05.285Z,81.00
2019-05-22T02:41:05.558Z,81.00
2019-05-22T02:42:05.809Z,81.10
2019-05-22T02:43:08.548Z,81.00
2019-05-22T02:44:05.520Z,81.00
2019-05-22T02:45:10.995Z,81.20
2019-05-22T02:46:05.020Z,81.20
2019-05-22T02:47:21.232Z,81.10
2019-05-22T02:48:08.042Z,81.10
2019-05-22T02:49:04.990Z,81.10
2019-05-22T02:50:05.234Z,81.20
2019-05-22T02:51:05.447Z,81.30
2019-05-22T02:52:08.165Z,81.40
2019-05-22T02:53:05.462Z,81.40
2019-05-22T02:54:08.011Z,81.50
2019-05-22T02:55:04.977Z,81.50
2019-05-22T02:56:05.023Z,81.60
2019-05-22T02:57:05.308Z,81.60
2019-05-22T02:58:07.980Z,81.60
2019-05-22T02:59:08.375Z,81.40
2019-05-22T03:00:05.272Z,81.40
2019-05-22T03:01:07.920Z,81.40
2019-05-22T03:02:08.353Z,81.50
2019-05-22T03:03:05.304Z,81.50
2019-05-22T03:04:05.297Z,81.50
2019-05-22T03:05:05.326Z,81.40
2019-05-22T03:06:10.414Z,81.10
2019-05-22T03:07:07.832Z,81.10
2019-05-22T03:08:05.734Z,81.20
2019-05-22T03:09:10.961Z,81.30
2019-05-22T03:10:06.032Z,81.30
2019-05-22T03:11:07.564Z,81.20
2019-05-22T03:12:05.664Z,81.20
2019-05-22T03:13:08.283Z,81.20
2019-05-22T03:14:05.209Z,81.20
2019-05-22T03:15:05.294Z,81.10
2019-05-22T03:16:07.854Z,81.10
2019-05-22T03:17:08.387Z,81.00
2019-05-22T03:18:05.370Z,80.90
2019-05-22T03:19:09.449Z,80.90
2019-05-22T03:20:05.649Z,80.90
2019-05-22T03:21:10.787Z,81.00
2019-05-22T03:22:08.328Z,80.80
2019-05-22T03:23:05.242Z,80.90
2019-05-22T03:24:05.391Z,80.90
2019-05-22T03:25:10.622Z,80.90
2019-05-22T03:26:08.053Z,80.60
2019-05-22T03:27:07.558Z,80.40
2019-05-22T03:28:08.065Z,80.30
2019-05-22T03:29:07.647Z,80.30
2019-05-22T03:30:08.146Z,80.20
2019-05-22T03:31:10.156Z,80.30
2019-05-22T03:32:07.696Z,80.30
2019-05-22T03:33:05.842Z,80.30
2019-05-22T03:34:07.670Z,80.10
2019-05-22T03:35:10.695Z,80.10
2019-05-22T03:36:08.254Z,80.10
2019-05-22T03:37:10.155Z,80.10
2019-05-22T03:38:05.125Z,80.10
2019-05-22T03:39:05.179Z,80.00
2019-05-22T03:40:05.427Z,79.90
2019-05-22T03:41:05.566Z,79.90
2019-05-22T03:42:05.781Z,79.70
2019-05-22T03:43:05.878Z,79.60
2019-05-22T03:44:05.910Z,79.70
2019-05-22T03:45:05.406Z,79.70
2019-05-22T03:46:08.115Z,79.70
2019-05-22T03:47:05.105Z,79.70
2019-05-22T03:48:10.232Z,79.70
2019-05-22T03:49:05.256Z,79.70
2019-05-22T03:50:08.007Z,79.80
2019-05-22T03:51:04.999Z,79.80
2019-05-22T03:52:05.117Z,79.80
2019-05-22T03:53:05.342Z,79.60
2019-05-22T03:54:07.991Z,79.70
2019-05-22T03:55:07.696Z,79.70
2019-05-22T03:56:05.595Z,79.80
2019-05-22T03:57:08.160Z,79.50
2019-05-22T03:58:10.367Z,79.60
2019-05-22T03:59:07.940Z,79.40
2019-05-22T04:00:05.940Z,79.40
2019-05-22T04:01:07.580Z,79.40
2019-05-22T04:02:05.693Z,79.40
2019-05-22T04:03:05.824Z,79.40
2019-05-22T04:04:08.472Z,79.40
2019-05-22T04:05:05.367Z,79.40
2019-05-22T04:06:05.431Z,79.50
2019-05-22T04:07:05.526Z,79.40
2019-05-22T04:08:05.589Z,79.40
2019-05-22T04:09:05.641Z,79.50
2019-05-22T04:10:05.725Z,79.40
2019-05-22T04:11:05.854Z,79.40
2019-05-22T04:12:05.897Z,79.40
2019-05-22T04:13:05.003Z,79.50
2019-05-22T04:14:07.902Z,79.40
2019-05-22T04:15:05.921Z,79.40
2019-05-22T04:16:10.460Z,79.30
2019-05-22T04:17:07.913Z,79.30
2019-05-22T04:18:05.895Z,79.30
2019-05-22T04:19:05.443Z,79.10
2019-05-22T04:20:07.863Z,79.20
2019-05-22T04:21:05.778Z,79.10
2019-05-22T04:22:05.504Z,79.20
2019-05-22T04:23:05.662Z,79.00
2019-05-22T04:24:10.410Z,79.00
2019-05-22T04:25:06.117Z,79.00
2019-05-22T04:26:05.379Z,79.00
2019-05-22T04:27:05.368Z,78.90
2019-05-22T04:28:08.146Z,79.00
2019-05-22T04:29:10.162Z,78.90
2019-05-22T04:30:08.247Z,78.80
2019-05-22T04:31:05.243Z,78.80
2019-05-22T04:32:08.243Z,78.80
2019-05-22T04:33:08.063Z,78.80
2019-05-22T04:34:05.195Z,78.80
2019-05-22T04:35:10.472Z,78.80
2019-05-22T04:36:10.586Z,78.80
2019-05-22T04:37:11.088Z,78.80
2019-05-22T04:38:07.602Z,78.70
2019-05-22T04:39:05.497Z,78.70
2019-05-22T04:40:05.525Z,78.70
2019-05-22T04:41:05.587Z,78.60
2019-05-22T04:42:08.284Z,78.60
2019-05-22T04:43:05.221Z,78.50
2019-05-22T04:44:05.376Z,78.60
2019-05-22T04:45:05.420Z,78.60
2019-05-22T04:46:05.474Z,78.50
2019-05-22T04:47:05.522Z,78.60
2019-05-22T04:48:10.631Z,78.40
2019-05-22T04:49:05.743Z,78.40
2019-05-22T04:50:08.406Z,78.30
2019-05-22T04:51:08.051Z,78.40
2019-05-22T04:52:07.677Z,78.50
2019-05-22T04:53:08.153Z,78.50
2019-05-22T04:54:05.159Z,78.50
2019-05-22T04:55:07.876Z,78.60
2019-05-22T04:56:11.071Z,78.60
2019-05-22T04:57:05.176Z,78.60
2019-05-22T04:58:05.467Z,78.60
2019-05-22T04:59:09.051Z,78.60
2019-05-22T05:00:07.528Z,78.60
2019-05-22T05:01:05.547Z,78.60
2019-05-22T05:02:05.686Z,78.70
2019-05-22T05:03:08.308Z,78.60
2019-05-22T05:04:07.786Z,78.60
2019-05-22T05:05:05.645Z,78.60
2019-05-22T05:06:07.440Z,78.60
2019-05-22T05:07:05.492Z,78.60
2019-05-22T05:08:05.643Z,78.60
2019-05-22T05:09:05.726Z,78.50
2019-05-22T05:10:11.023Z,78.60
2019-05-22T05:11:04.994Z,78.60
2019-05-22T05:12:07.733Z,78.60
2019-05-22T05:13:08.402Z,78.50
2019-05-22T05:14:05.417Z,78.50
2019-05-22T05:15:05.476Z,78.50
2019-05-22T05:16:05.524Z,78.40
2019-05-22T05:17:05.783Z,78.40
2019-05-22T05:18:07.581Z,78.40
2019-05-22T05:19:08.130Z,78.40
2019-05-22T05:20:05.141Z,78.40
2019-05-22T05:21:05.246Z,78.40
2019-05-22T05:22:05.229Z,78.40
2019-05-22T05:23:05.342Z,78.40
2019-05-22T05:24:05.330Z,78.40
2019-05-22T05:25:07.922Z,78.30
2019-05-22T05:26:05.815Z,78.30
2019-05-22T05:27:08.385Z,78.40
2019-05-22T05:28:05.338Z,78.40
2019-05-22T05:29:05.433Z,78.40
2019-05-22T05:30:05.466Z,78.40
2019-05-22T05:31:05.988Z,78.50
2019-05-22T05:32:05.160Z,78.50
2019-05-22T05:33:10.421Z,78.50
2019-05-22T05:34:07.913Z,78.50
2019-05-22T05:35:08.349Z,78.60
2019-05-22T05:36:05.328Z,78.60
2019-05-22T05:37:10.473Z,78.60
2019-05-22T05:38:05.534Z,78.60
2019-05-22T05:39:08.146Z,78.60
2019-05-22T05:40:05.159Z,78.60
2019-05-22T05:41:07.874Z,78.60
2019-05-22T05:42:13.458Z,78.60
2019-05-22T05:43:07.907Z,78.40
2019-05-22T05:44:05.938Z,78.50
2019-05-22T05:45:05.608Z,78.30
2019-05-22T05:46:08.289Z,78.30
2019-05-22T05:47:05.342Z,78.30
2019-05-22T05:48:07.934Z,78.10
2019-05-22T05:49:08.504Z,78.00
2019-05-22T05:50:05.503Z,78.00
2019-05-22T05:51:06.960Z,78.00
2019-05-22T05:52:07.534Z,78.10
2019-05-22T05:53:05.552Z,78.10
2019-05-22T05:54:08.093Z,78.10
2019-05-22T05:55:07.591Z,78.30
2019-05-22T05:56:10.688Z,78.10
2019-05-22T05:57:05.578Z,78.30
2019-05-22T05:58:08.201Z,78.10
2019-05-22T05:59:05.384Z,78.20
2019-05-22T06:00:08.003Z,78.10
2019-05-22T06:01:06.161Z,78.10
2019-05-22T06:02:07.790Z,78.00
2019-05-22T06:03:08.283Z,78.10
2019-05-22T06:04:05.231Z,78.10
2019-05-22T06:05:08.039Z,78.00
2019-05-22T06:06:10.765Z,78.00
2019-05-22T06:07:08.250Z,78.00
2019-05-22T06:08:05.192Z,78.00
2019-05-22T06:09:05.362Z,77.90
2019-05-22T06:10:10.680Z,77.80
2019-05-22T06:11:08.312Z,77.80
2019-05-22T06:12:07.734Z,77.70
2019-05-22T06:13:08.297Z,77.60
2019-05-22T06:14:07.857Z,77.50
2019-05-22T06:15:08.363Z,77.50
2019-05-22T06:16:07.825Z,77.60
2019-05-22T06:17:05.766Z,77.50
2019-05-22T06:18:11.391Z,77.50
2019-05-22T06:19:10.572Z,77.50
2019-05-22T06:20:10.581Z,77.50
2019-05-22T06:21:08.197Z,77.40
2019-05-22T06:22:07.727Z,77.70
2019-05-22T06:23:08.188Z,77.60
2019-05-22T06:24:05.119Z,77.60
2019-05-22T06:25:06.029Z,77.70
2019-05-22T06:26:05.209Z,78.10
2019-05-22T06:27:05.413Z,78.00
2019-05-22T06:28:05.555Z,78.00
2019-05-22T06:29:08.201Z,77.90
2019-05-22T06:30:10.289Z,77.70
2019-05-22T06:31:07.823Z,77.70
2019-05-22T06:32:08.285Z,77.70
2019-05-22T06:33:08.018Z,77.40
2019-05-22T06:34:07.632Z,77.10
2019-05-22T06:35:05.722Z,77.10
2019-05-22T06:36:07.531Z,77.10
2019-05-22T06:37:05.488Z,77.10
2019-05-22T06:38:08.326Z,77.00
2019-05-22T06:39:07.959Z,77.00
2019-05-22T06:40:05.919Z,77.00
2019-05-22T06:41:05.110Z,76.90
2019-05-22T06:42:05.328Z,76.80
2019-05-22T06:43:07.990Z,76.00
2019-05-22T06:44:10.967Z,76.00
2019-05-22T06:45:06.044Z,75.80
2019-05-22T06:46:07.695Z,76.10
2019-05-22T06:47:05.779Z,76.10
2019-05-22T06:48:05.249Z,76.20
2019-05-22T06:49:10.608Z,76.00
2019-05-22T06:50:08.249Z,76.00
2019-05-22T06:51:19.814Z,76.00
2019-05-22T06:52:07.494Z,75.90
2019-05-22T06:53:10.403Z,75.90
2019-05-22T06:54:05.555Z,75.70
2019-05-22T06:55:05.817Z,75.60
2019-05-22T06:56:05.492Z,75.40
2019-05-22T06:57:05.820Z,75.40
2019-05-22T06:58:06.233Z,75.40
2019-05-22T06:59:05.442Z,75.50
2019-05-22T07:00:15.304Z,75.50
2019-05-22T07:01:05.633Z,75.40
2019-05-22T07:02:05.688Z,75.40
2019-05-22T07:03:05.971Z,75.40
2019-05-22T07:04:10.215Z,75.60
2019-05-22T07:05:05.224Z,75.60
2019-05-22T07:06:08.186Z,75.50
2019-05-22T07:07:12.987Z,75.30
2019-05-22T07:08:07.504Z,75.30
2019-05-22T07:09:05.456Z,75.40
2019-05-22T07:10:05.631Z,75.40
2019-05-22T07:11:08.391Z,75.50
2019-05-22T07:12:08.174Z,75.60
2019-05-22T07:13:07.788Z,75.50
2019-05-22T07:14:08.329Z,75.50
2019-05-22T07:15:05.299Z,75.50
2019-05-22T07:16:05.380Z,75.00
2019-05-22T07:17:10.082Z,74.00
2019-05-22T07:18:05.132Z,74.00
2019-05-22T07:19:07.698Z,73.80
2019-05-22T07:20:05.682Z,73.80
2019-05-22T07:21:08.350Z,74.00
2019-05-22T07:22:05.271Z,74.00
2019-05-22T07:23:05.324Z,74.10
2019-05-22T07:24:05.355Z,74.10
2019-05-22T07:25:10.406Z,73.70
2019-05-22T07:26:05.230Z,73.70
2019-05-22T07:27:05.333Z,73.60
2019-05-22T07:28:07.821Z,73.40
2019-05-22T07:29:05.851Z,73.40
2019-05-22T07:30:06.173Z,73.60
2019-05-22T07:31:05.293Z,73.50
2019-05-22T07:32:05.473Z,73.40
2019-05-22T07:33:05.195Z,73.60
2019-05-22T07:34:05.336Z,73.70
2019-05-22T07:35:08.206Z,73.90
2019-05-22T07:36:15.514Z,73.90
2019-05-22T07:37:08.125Z,74.10
2019-05-22T07:38:07.704Z,74.10
2019-05-22T07:39:08.358Z,74.20
2019-05-22T07:40:05.459Z,74.20
2019-05-22T07:41:05.801Z,74.40
2019-05-22T07:42:06.014Z,74.80
2019-05-22T07:43:05.324Z,74.90
2019-05-22T07:44:05.519Z,75.20
2019-05-22T07:45:05.886Z,75.00
2019-05-22T07:46:05.183Z,75.10
2019-05-22T07:47:07.739Z,75.30
2019-05-22T07:48:05.989Z,75.30
2019-05-22T07:49:05.224Z,75.30
2019-05-22T07:50:05.874Z,75.20
2019-05-22T07:51:07.904Z,75.00
2019-05-22T07:52:05.938Z,75.00
2019-05-22T07:53:04.992Z,74.70
2019-05-22T07:54:05.102Z,74.40
2019-05-22T07:55:05.169Z,74.30
2019-05-22T07:56:05.946Z,74.40
2019-05-22T07:57:05.041Z,74.70
2019-05-22T07:58:07.551Z,75.00
2019-05-22T07:59:05.464Z,75.10
2019-05-22T08:00:10.633Z,74.80
2019-05-22T08:01:05.612Z,74.80
2019-05-22T08:02:08.292Z,74.70
2019-05-22T08:03:12.945Z,74.60
2019-05-22T08:04:08.573Z,74.70
2019-05-22T08:05:05.567Z,74.70
2019-05-22T08:06:08.155Z,74.70
2019-05-22T08:07:07.690Z,74.80
2019-05-22T08:08:05.651Z,74.80
2019-05-22T08:09:05.736Z,75.00
2019-05-22T08:10:08.360Z,75.10
2019-05-22T08:11:08.021Z,75.20
2019-05-22T08:12:07.610Z,75.20
2019-05-22T08:13:10.623Z,75.20
2019-05-22T08:14:08.131Z,75.00
2019-05-22T08:15:05.222Z,75.00
2019-05-22T08:16:05.547Z,74.80
2019-05-22T08:17:08.360Z,74.60
2019-05-22T08:18:07.833Z,74.90
2019-05-22T08:19:08.257Z,74.90
2019-05-22T08:20:05.228Z,74.90
2019-05-22T08:21:05.732Z,75.10
2019-05-22T08:22:08.222Z,75.20
2019-05-22T08:23:05.513Z,75.20
2019-05-22T08:24:05.727Z,75.20
2019-05-22T08:25:05.829Z,75.20
2019-05-22T08:26:08.531Z,75.10
2019-05-22T08:27:05.423Z,75.10
2019-05-22T08:28:07.994Z,75.20
2019-05-22T08:29:05.975Z,75.10
2019-05-22T08:30:05.043Z,75.20
2019-05-22T08:31:05.311Z,75.50
2019-05-22T08:32:08.088Z,75.40
2019-05-22T08:33:07.547Z,75.40
2019-05-22T08:34:05.482Z,75.40
2019-05-22T08:35:05.514Z,75.40
2019-05-22T08:36:05.547Z,75.50
2019-05-22T08:37:08.233Z,75.90
2019-05-22T08:38:05.314Z,75.90
2019-05-22T08:39:07.972Z,75.90
2019-05-22T08:40:05.873Z,75.90
2019-05-22T08:41:05.882Z,75.90
2019-05-22T08:42:05.150Z,75.90
2019-05-22T08:43:05.287Z,75.80
2019-05-22T08:44:17.677Z,75.20
2019-05-22T08:45:08.565Z,74.50
2019-05-22T08:46:05.624Z,74.50
2019-05-22T08:47:08.258Z,74.20
2019-05-22T08:48:05.193Z,74.20
2019-05-22T08:49:05.327Z,74.10
2019-05-22T08:50:05.387Z,74.20
2019-05-22T08:51:05.678Z,74.50
2019-05-22T08:52:24.277Z,73.70
2019-05-22T08:53:10.828Z,73.70
2019-05-22T08:54:06.496Z,73.60
2019-05-22T08:55:08.067Z,74.00
2019-05-22T08:56:04.987Z,74.10
2019-05-22T08:57:05.416Z,74.10
2019-05-22T08:58:08.365Z,74.20
2019-05-22T08:59:20.279Z,73.60
2019-05-22T09:00:08.110Z,73.30
2019-05-22T09:01:07.665Z,73.10
2019-05-22T09:02:08.165Z,73.10
2019-05-22T09:03:05.194Z,73.10
2019-05-22T09:04:07.810Z,72.80
2019-05-22T09:05:05.749Z,72.80
2019-05-22T09:06:05.975Z,72.80
2019-05-22T09:07:05.174Z,72.90
2019-05-22T09:08:07.823Z,72.70
2019-05-22T09:09:05.770Z,72.70
2019-05-22T09:10:08.484Z,72.30
2019-05-22T09:11:05.508Z,72.30
2019-05-22T09:12:05.657Z,72.30
2019-05-22T09:13:05.837Z,72.00
2019-05-22T09:14:08.558Z,71.80
2019-05-22T09:15:05.436Z,71.90
2019-05-22T09:16:07.955Z,72.40
2019-05-22T09:17:08.691Z,72.30
2019-05-22T09:18:05.851Z,72.30
2019-05-22T09:19:08.577Z,72.40
2019-05-22T09:20:11.162Z,72.20
2019-05-22T09:21:05.215Z,72.20
2019-05-22T09:22:07.860Z,72.20
2019-05-22T09:23:05.840Z,72.20
2019-05-22T09:24:10.997Z,72.40
2019-05-22T09:25:06.072Z,72.40
2019-05-22T09:26:07.889Z,72.50
2019-05-22T09:27:05.906Z,72.50
2019-05-22T09:28:05.062Z,72.50
2019-05-22T09:29:07.797Z,72.60
2019-05-22T09:30:05.809Z,72.60
2019-05-22T09:31:08.513Z,72.60
2019-05-22T09:32:08.230Z,72.50
2019-05-22T09:33:05.325Z,72.50
2019-05-22T09:34:08.078Z,72.60
2019-05-22T09:35:05.083Z,72.60
2019-05-22T09:36:05.396Z,72.70
2019-05-22T09:37:07.979Z,72.50
2019-05-22T09:38:05.494Z,72.50
2019-05-22T09:39:05.610Z,72.50
2019-05-22T09:40:13.240Z,72.70
2019-05-22T09:41:07.647Z,72.90
2019-05-22T09:42:05.588Z,72.80
2019-05-22T09:43:08.310Z,73.00
2019-05-22T09:44:05.288Z,73.00
2019-05-22T09:45:07.966Z,73.10
2019-05-22T09:46:05.891Z,73.10
2019-05-22T09:47:05.041Z,73.00
2019-05-22T09:48:07.679Z,72.90
2019-05-22T09:49:08.178Z,72.70
2019-05-22T09:50:10.221Z,72.60
2019-05-22T09:51:07.864Z,72.40
2019-05-22T09:52:13.444Z,72.40
2019-05-22T09:53:05.565Z,72.40
2019-05-22T09:54:08.382Z,72.60
2019-05-22T09:55:08.129Z,72.50
2019-05-22T09:56:10.437Z,72.40
2019-05-22T09:57:05.394Z,72.40
2019-05-22T09:58:05.556Z,72.50
2019-05-22T09:59:05.658Z,72.60
2019-05-22T10:00:05.765Z,72.60
2019-05-22T10:01:05.899Z,72.80
2019-05-22T10:02:04.970Z,72.80
2019-05-22T10:03:05.101Z,72.90
2019-05-22T10:04:05.251Z,73.00
2019-05-22T10:05:05.944Z,73.20
2019-05-22T10:06:05.536Z,73.30
2019-05-22T10:07:05.926Z,73.30
2019-05-22T10:08:07.621Z,73.50
2019-05-22T10:09:08.115Z,73.40
2019-05-22T10:10:05.094Z,73.40
2019-05-22T10:11:07.713Z,73.50
2019-05-22T10:12:10.855Z,73.50
2019-05-22T10:13:08.434Z,73.70
2019-05-22T10:14:05.510Z,73.70
2019-05-22T10:15:05.592Z,73.60
2019-05-22T10:16:10.088Z,73.70
2019-05-22T10:17:05.107Z,73.70
2019-05-22T10:18:08.637Z,73.80
2019-05-22T10:19:08.362Z,73.90
2019-05-22T10:20:12.963Z,74.00
2019-05-22T10:21:05.020Z,74.00
2019-05-22T10:22:06.014Z,74.00
2019-05-22T10:23:16.234Z,74.00
2019-05-22T10:24:05.667Z,73.90
2019-05-22T10:25:17.057Z,73.80
2019-05-22T10:26:05.387Z,73.90
2019-05-22T10:27:10.658Z,73.80
2019-05-22T10:28:08.334Z,73.50
2019-05-22T10:29:05.450Z,73.50
2019-05-22T10:30:05.932Z,73.50
2019-05-22T10:31:06.185Z,73.50
2019-05-22T10:32:05.520Z,73.60
2019-05-22T10:33:10.778Z,73.70
2019-05-22T10:34:05.841Z,73.60
2019-05-22T10:35:06.077Z,73.70
2019-05-22T10:36:05.181Z,73.50
2019-05-22T10:37:10.798Z,72.70
2019-05-22T10:38:08.485Z,72.90
2019-05-22T10:39:05.905Z,72.90
2019-05-22T10:40:07.870Z,73.00
2019-05-22T10:41:11.006Z,73.20
2019-05-22T10:42:10.153Z,73.30
2019-05-22T10:43:05.658Z,73.20
2019-05-22T10:44:05.389Z,73.40
2019-05-22T10:45:08.113Z,73.20
2019-05-22T10:46:08.205Z,72.90
2019-05-22T10:47:05.295Z,72.90
2019-05-22T10:48:05.393Z,73.00
2019-05-22T10:49:05.702Z,73.00
2019-05-22T10:50:08.449Z,73.30
2019-05-22T10:51:05.426Z,73.30
2019-05-22T10:52:08.211Z,73.40
2019-05-22T10:53:05.276Z,73.40
2019-05-22T10:54:05.359Z,73.30
2019-05-22T10:55:08.070Z,73.10
2019-05-22T10:56:07.700Z,73.20
2019-05-22T10:57:05.657Z,73.10
2019-05-22T10:58:05.768Z,73.20
2019-05-22T10:59:08.371Z,72.90
2019-05-22T11:00:08.044Z,72.80
2019-05-22T11:01:07.538Z,72.80
2019-05-22T11:02:05.556Z,72.80
2019-05-22T11:03:13.189Z,73.00
2019-05-22T11:04:05.136Z,73.00
2019-05-22T11:05:08.165Z,72.40
2019-05-22T11:06:08.587Z,72.30
2019-05-22T11:07:08.434Z,72.30
2019-05-22T11:08:05.667Z,21.10
2019-05-22T11:09:05.911Z,72.50
2019-05-22T11:10:07.696Z,72.50
2019-05-22T11:11:08.189Z,72.60
2019-05-22T11:12:07.625Z,72.90
2019-05-22T11:13:05.558Z,72.80
2019-05-22T11:14:09.978Z,72.70
2019-05-22T11:15:05.162Z,72.70
2019-05-22T11:16:05.620Z,72.70
2019-05-22T11:17:08.358Z,72.70
2019-05-22T11:18:05.397Z,72.30
2019-05-22T11:19:05.631Z,72.70
2019-05-22T11:20:05.799Z,72.70
2019-05-22T11:21:08.353Z,72.70
2019-05-22T11:22:05.316Z,72.70
2019-05-22T11:23:05.500Z,72.60
2019-05-22T11:24:08.095Z,72.10
2019-05-22T11:25:05.169Z,72.10
2019-05-22T11:26:05.332Z,72.20
2019-05-22T11:27:07.939Z,72.10
2019-05-22T11:28:08.389Z,71.90
2019-05-22T11:29:07.953Z,71.60
2019-05-22T11:30:08.439Z,71.70
2019-05-22T11:31:08.013Z,71.80
2019-05-22T11:32:12.687Z,71.90
2019-05-22T11:33:05.679Z,71.90
2019-05-22T11:34:05.744Z,72.00
2019-05-22T11:35:08.345Z,72.00
2019-05-22T11:36:07.937Z,72.10
2019-05-22T11:37:08.444Z,72.20
2019-05-22T11:38:05.399Z,72.20
2019-05-22T11:39:05.606Z,71.90
2019-05-22T11:40:08.269Z,71.50
2019-05-22T11:41:08.096Z,71.50
2019-05-22T11:42:05.305Z,71.50
2019-05-22T11:43:08.178Z,71.40
2019-05-22T11:44:05.211Z,71.40
2019-05-22T11:45:05.813Z,71.60
2019-05-22T11:46:05.889Z,71.90
2019-05-22T11:47:05.046Z,72.00
2019-05-22T11:48:07.648Z,72.10
2019-05-22T11:49:05.670Z,72.10
2019-05-22T11:50:05.807Z,72.20
2019-05-22T11:51:08.501Z,72.40
2019-05-22T11:52:05.436Z,72.40
2019-05-22T11:53:05.532Z,72.50
2019-05-22T11:54:10.141Z,72.70
2019-05-22T11:55:05.255Z,72.70
2019-05-22T11:56:07.870Z,72.50
2019-05-22T11:57:05.823Z,72.50
2019-05-22T11:58:08.416Z,72.50
2019-05-22T11:59:08.029Z,72.70
2019-05-22T12:00:09.674Z,72.70
2019-05-22T12:01:05.700Z,72.70
2019-05-22T12:02:05.963Z,73.10
2019-05-22T12:03:07.658Z,73.20
2019-05-22T12:04:05.571Z,73.20
2019-05-22T12:05:10.165Z,72.60
2019-05-22T12:06:07.795Z,72.60
2019-05-22T12:07:05.850Z,72.50
2019-05-22T12:08:05.977Z,72.10
2019-05-22T12:09:05.041Z,71.70
2019-05-22T12:10:07.581Z,71.20
2019-05-22T12:11:05.759Z,71.20
2019-05-22T12:12:06.023Z,70.90
2019-05-22T12:13:05.103Z,70.00
2019-05-22T12:14:05.477Z,70.00
2019-05-22T12:15:05.540Z,69.70
2019-05-22T12:16:05.625Z,69.20
2019-05-22T12:17:05.737Z,68.90
2019-05-22T12:18:08.434Z,68.40
2019-05-22T12:19:05.387Z,68.40
2019-05-22T12:20:05.458Z,68.60
2019-05-22T12:21:05.608Z,68.70
2019-05-22T12:22:08.383Z,68.60
2019-05-22T12:23:05.402Z,68.70
2019-05-22T12:24:05.458Z,69.00
2019-05-22T12:25:08.182Z,69.20
2019-05-22T12:26:05.095Z,69.20
2019-05-22T12:27:05.161Z,69.10
2019-05-22T12:28:05.308Z,69.20
2019-05-22T12:29:10.575Z,69.60
2019-05-22T12:30:06.015Z,69.60
2019-05-22T12:31:05.970Z,69.60
2019-05-22T12:32:05.612Z,70.00
2019-05-22T12:33:14.447Z,69.80
2019-05-22T12:34:05.654Z,69.80
2019-05-22T12:35:05.338Z,69.90
2019-05-22T12:36:05.358Z,69.80
2019-05-22T12:37:08.161Z,69.70
2019-05-22T12:38:07.908Z,69.60
2019-05-22T12:39:06.145Z,69.50
2019-05-22T12:40:05.492Z,69.80
2019-05-22T12:41:05.707Z,69.20
2019-05-22T12:42:06.163Z,69.00
2019-05-22T12:43:13.332Z,68.20
2019-05-22T12:44:13.418Z,68.20
2019-05-22T12:45:08.473Z,68.20
2019-05-22T12:46:05.562Z,68.20
2019-05-22T12:47:08.633Z,68.30
2019-05-22T12:48:08.683Z,68.40
2019-05-22T12:49:09.643Z,68.30
2019-05-22T12:50:06.291Z,68.20
2019-05-22T12:51:10.744Z,67.70
2019-05-22T12:52:06.080Z,67.60